sensor_id;sensor_type;location;lat;lon;timestamp;P1;durP1;ratioP1;P2;durP2;ratioP2
10605;SDS011;5350;42.698;23.148;2023-05-28T00:01:28;5.13;;;3.88;;
10605;SDS011;5350;42.698;23.148;2023-05-28T00:03:54;6.77;;;3.70;;
10605;SDS011;5350;42.698;23.148;2023-05-28T00:06:21;4.57;;;4.03;;
10605;SDS011;5350;42.698;23.148;2023-05-28T00:08:48;4.63;;;4.23;;
10605;SDS011;5350;42.698;23.148;2023-05-28T00:11:16;4.73;;;4.33;;
10605;SDS011;5350;42.698;23.148;2023-05-28T00:13:43;4.17;;;3.77;;
10605;SDS011;5350;42.698;23.148;2023-05-28T00:16:09;4.07;;;3.67;;
10605;SDS011;5350;42.698;23.148;2023-05-28T00:18:38;4.40;;;4.00;;
10605;SDS011;5350;42.698;23.148;2023-05-28T00:21:05;4.83;;;4.33;;
10605;SDS011;5350;42.698;23.148;2023-05-28T00:23:31;5.03;;;3.80;;
10605;SDS011;5350;42.698;23.148;2023-05-28T00:25:58;5.87;;;4.07;;
10605;SDS011;5350;42.698;23.148;2023-05-28T00:28:26;4.60;;;4.20;;
10605;SDS011;5350;42.698;23.148;2023-05-28T00:30:53;4.93;;;4.03;;
10605;SDS011;5350;42.698;23.148;2023-05-28T00:33:19;7.40;;;4.13;;
10605;SDS011;5350;42.698;23.148;2023-05-28T00:35:46;5.80;;;4.37;;
10605;SDS011;5350;42.698;23.148;2023-05-28T00:38:15;4.27;;;3.87;;
10605;SDS011;5350;42.698;23.148;2023-05-28T00:40:42;4.20;;;3.87;;
10605;SDS011;5350;42.698;23.148;2023-05-28T00:43:09;4.97;;;4.27;;
10605;SDS011;5350;42.698;23.148;2023-05-28T00:45:37;4.30;;;3.90;;
10605;SDS011;5350;42.698;23.148;2023-05-28T00:48:04;4.37;;;3.97;;
10605;SDS011;5350;42.698;23.148;2023-05-28T00:50:31;4.33;;;3.93;;
10605;SDS011;5350;42.698;23.148;2023-05-28T00:52:57;3.90;;;3.60;;
10605;SDS011;5350;42.698;23.148;2023-05-28T00:55:26;4.32;;;3.85;;
10605;SDS011;5350;42.698;23.148;2023-05-28T00:57:53;3.85;;;3.53;;
10605;SDS011;5350;42.698;23.148;2023-05-28T01:00:21;4.77;;;3.67;;
10605;SDS011;5350;42.698;23.148;2023-05-28T01:02:50;5.25;;;4.13;;
10605;SDS011;5350;42.698;23.148;2023-05-28T01:05:17;4.20;;;3.80;;
10605;SDS011;5350;42.698;23.148;2023-05-28T01:07:44;4.27;;;3.70;;
10605;SDS011;5350;42.698;23.148;2023-05-28T01:10:11;3.83;;;3.53;;
10605;SDS011;5350;42.698;23.148;2023-05-28T01:12:38;5.35;;;3.92;;
10605;SDS011;5350;42.698;23.148;2023-05-28T01:15:08;5.25;;;3.75;;
10605;SDS011;5350;42.698;23.148;2023-05-28T01:17:36;4.45;;;4.03;;
10605;SDS011;5350;42.698;23.148;2023-05-28T01:20:05;4.30;;;3.90;;
10605;SDS011;5350;42.698;23.148;2023-05-28T01:22:38;3.88;;;3.58;;
10605;SDS011;5350;42.698;23.148;2023-05-28T01:25:07;3.83;;;3.50;;
10605;SDS011;5350;42.698;23.148;2023-05-28T01:27:38;3.97;;;3.67;;
10605;SDS011;5350;42.698;23.148;2023-05-28T01:30:05;4.70;;;4.07;;
10605;SDS011;5350;42.698;23.148;2023-05-28T01:32:34;4.00;;;3.60;;
10605;SDS011;5350;42.698;23.148;2023-05-28T01:35:01;5.68;;;3.92;;
10605;SDS011;5350;42.698;23.148;2023-05-28T01:37:28;4.00;;;3.70;;
10605;SDS011;5350;42.698;23.148;2023-05-28T01:39:56;4.07;;;3.33;;
10605;SDS011;5350;42.698;23.148;2023-05-28T01:42:25;3.95;;;3.65;;
10605;SDS011;5350;42.698;23.148;2023-05-28T01:44:53;4.70;;;3.55;;
10605;SDS011;5350;42.698;23.148;2023-05-28T01:47:22;4.03;;;3.60;;
10605;SDS011;5350;42.698;23.148;2023-05-28T01:49:50;3.70;;;3.40;;
10605;SDS011;5350;42.698;23.148;2023-05-28T01:52:17;4.25;;;3.85;;
10605;SDS011;5350;42.698;23.148;2023-05-28T01:54:44;3.80;;;3.50;;
10605;SDS011;5350;42.698;23.148;2023-05-28T01:57:11;8.57;;;3.88;;
10605;SDS011;5350;42.698;23.148;2023-05-28T01:59:39;4.90;;;3.20;;
10605;SDS011;5350;42.698;23.148;2023-05-28T02:02:06;3.83;;;3.53;;
10605;SDS011;5350;42.698;23.148;2023-05-28T02:04:33;4.53;;;4.13;;
10605;SDS011;5350;42.698;23.148;2023-05-28T02:07:00;7.15;;;3.92;;
10605;SDS011;5350;42.698;23.148;2023-05-28T02:09:27;4.40;;;3.72;;
10605;SDS011;5350;42.698;23.148;2023-05-28T02:11:53;4.88;;;4.05;;
10605;SDS011;5350;42.698;23.148;2023-05-28T02:14:21;3.78;;;3.53;;
10605;SDS011;5350;42.698;23.148;2023-05-28T02:16:49;5.22;;;3.63;;
10605;SDS011;5350;42.698;23.148;2023-05-28T02:19:17;3.92;;;3.63;;
10605;SDS011;5350;42.698;23.148;2023-05-28T02:21:45;5.28;;;4.07;;
10605;SDS011;5350;42.698;23.148;2023-05-28T02:24:11;5.47;;;4.45;;
10605;SDS011;5350;42.698;23.148;2023-05-28T02:26:38;5.88;;;3.80;;
10605;SDS011;5350;42.698;23.148;2023-05-28T02:29:05;4.15;;;3.72;;
10605;SDS011;5350;42.698;23.148;2023-05-28T02:31:32;4.65;;;4.20;;
10605;SDS011;5350;42.698;23.148;2023-05-28T02:34:01;4.20;;;3.90;;
10605;SDS011;5350;42.698;23.148;2023-05-28T02:36:28;6.10;;;4.45;;
10605;SDS011;5350;42.698;23.148;2023-05-28T02:38:55;4.70;;;4.30;;
10605;SDS011;5350;42.698;23.148;2023-05-28T02:41:22;4.55;;;4.15;;
10605;SDS011;5350;42.698;23.148;2023-05-28T02:43:48;4.97;;;3.80;;
10605;SDS011;5350;42.698;23.148;2023-05-28T02:46:15;5.47;;;3.75;;
10605;SDS011;5350;42.698;23.148;2023-05-28T02:48:42;4.47;;;4.07;;
10605;SDS011;5350;42.698;23.148;2023-05-28T02:51:11;4.32;;;3.70;;
10605;SDS011;5350;42.698;23.148;2023-05-28T02:53:37;4.18;;;3.80;;
10605;SDS011;5350;42.698;23.148;2023-05-28T02:56:04;4.60;;;4.10;;
10605;SDS011;5350;42.698;23.148;2023-05-28T02:58:31;4.65;;;4.25;;
10605;SDS011;5350;42.698;23.148;2023-05-28T03:00:58;4.47;;;4.10;;
10605;SDS011;5350;42.698;23.148;2023-05-28T03:03:25;4.80;;;3.88;;
10605;SDS011;5350;42.698;23.148;2023-05-28T03:05:51;4.65;;;4.25;;
10605;SDS011;5350;42.698;23.148;2023-05-28T03:08:19;5.85;;;3.90;;
10605;SDS011;5350;42.698;23.148;2023-05-28T03:10:47;4.80;;;4.30;;
10605;SDS011;5350;42.698;23.148;2023-05-28T03:13:14;4.82;;;4.18;;
10605;SDS011;5350;42.698;23.148;2023-05-28T03:15:40;4.32;;;3.97;;
10605;SDS011;5350;42.698;23.148;2023-05-28T03:18:07;4.75;;;4.10;;
10605;SDS011;5350;42.698;23.148;2023-05-28T03:20:34;4.50;;;3.55;;
10605;SDS011;5350;42.698;23.148;2023-05-28T03:23:00;4.55;;;4.25;;
10605;SDS011;5350;42.698;23.148;2023-05-28T03:25:29;4.88;;;4.30;;
10605;SDS011;5350;42.698;23.148;2023-05-28T03:27:55;4.18;;;3.88;;
10605;SDS011;5350;42.698;23.148;2023-05-28T03:30:22;4.25;;;3.95;;
10605;SDS011;5350;42.698;23.148;2023-05-28T03:32:49;4.75;;;4.35;;
10605;SDS011;5350;42.698;23.148;2023-05-28T03:35:16;5.45;;;4.13;;
10605;SDS011;5350;42.698;23.148;2023-05-28T03:37:43;6.65;;;4.30;;
10605;SDS011;5350;42.698;23.148;2023-05-28T03:40:10;4.80;;;4.40;;
10605;SDS011;5350;42.698;23.148;2023-05-28T03:42:39;4.50;;;4.15;;
10605;SDS011;5350;42.698;23.148;2023-05-28T03:45:06;4.90;;;4.50;;
10605;SDS011;5350;42.698;23.148;2023-05-28T03:47:33;4.97;;;4.57;;
10605;SDS011;5350;42.698;23.148;2023-05-28T03:50:01;4.63;;;4.22;;
10605;SDS011;5350;42.698;23.148;2023-05-28T03:52:29;7.32;;;4.55;;
10605;SDS011;5350;42.698;23.148;2023-05-28T03:54:56;4.80;;;4.40;;
10605;SDS011;5350;42.698;23.148;2023-05-28T03:57:23;4.95;;;4.55;;
10605;SDS011;5350;42.698;23.148;2023-05-28T03:59:51;5.22;;;4.47;;
10605;SDS011;5350;42.698;23.148;2023-05-28T04:02:20;5.45;;;4.80;;
10605;SDS011;5350;42.698;23.148;2023-05-28T04:04:47;5.82;;;4.28;;
10605;SDS011;5350;42.698;23.148;2023-05-28T04:07:14;4.40;;;4.10;;
10605;SDS011;5350;42.698;23.148;2023-05-28T04:09:41;5.00;;;4.60;;
10605;SDS011;5350;42.698;23.148;2023-05-28T04:12:08;4.90;;;4.30;;
10605;SDS011;5350;42.698;23.148;2023-05-28T04:14:37;5.35;;;4.85;;
10605;SDS011;5350;42.698;23.148;2023-05-28T04:17:06;4.75;;;4.45;;
10605;SDS011;5350;42.698;23.148;2023-05-28T04:19:33;4.95;;;4.45;;
10605;SDS011;5350;42.698;23.148;2023-05-28T04:22:00;4.88;;;4.30;;
10605;SDS011;5350;42.698;23.148;2023-05-28T04:24:26;5.13;;;4.43;;
10605;SDS011;5350;42.698;23.148;2023-05-28T04:26:53;5.78;;;4.68;;
10605;SDS011;5350;42.698;23.148;2023-05-28T04:29:22;4.70;;;4.20;;
10605;SDS011;5350;42.698;23.148;2023-05-28T04:31:50;5.63;;;4.15;;
10605;SDS011;5350;42.698;23.148;2023-05-28T04:34:18;4.70;;;4.18;;
10605;SDS011;5350;42.698;23.148;2023-05-28T04:36:46;5.95;;;4.25;;
10605;SDS011;5350;42.698;23.148;2023-05-28T04:39:13;4.88;;;4.38;;
10605;SDS011;5350;42.698;23.148;2023-05-28T04:41:40;4.82;;;4.35;;
10605;SDS011;5350;42.698;23.148;2023-05-28T04:44:08;6.93;;;4.95;;
10605;SDS011;5350;42.698;23.148;2023-05-28T04:46:35;4.78;;;4.38;;
10605;SDS011;5350;42.698;23.148;2023-05-28T04:49:02;5.70;;;5.20;;
10605;SDS011;5350;42.698;23.148;2023-05-28T04:51:32;6.00;;;4.85;;
10605;SDS011;5350;42.698;23.148;2023-05-28T04:53:58;5.20;;;4.05;;
10605;SDS011;5350;42.698;23.148;2023-05-28T04:56:25;5.28;;;4.45;;
10605;SDS011;5350;42.698;23.148;2023-05-28T04:58:52;5.05;;;4.30;;
10605;SDS011;5350;42.698;23.148;2023-05-28T05:01:19;5.82;;;4.38;;
10605;SDS011;5350;42.698;23.148;2023-05-28T05:03:45;4.32;;;4.03;;
10605;SDS011;5350;42.698;23.148;2023-05-28T05:06:12;4.90;;;4.50;;
10605;SDS011;5350;42.698;23.148;2023-05-28T05:08:40;5.30;;;4.43;;
10605;SDS011;5350;42.698;23.148;2023-05-28T05:11:07;6.97;;;4.68;;
10605;SDS011;5350;42.698;23.148;2023-05-28T05:13:34;4.78;;;4.38;;
10605;SDS011;5350;42.698;23.148;2023-05-28T05:16:00;4.85;;;4.40;;
10605;SDS011;5350;42.698;23.148;2023-05-28T05:18:27;4.72;;;4.25;;
10605;SDS011;5350;42.698;23.148;2023-05-28T05:20:54;5.32;;;4.60;;
10605;SDS011;5350;42.698;23.148;2023-05-28T05:23:22;7.70;;;4.50;;
10605;SDS011;5350;42.698;23.148;2023-05-28T05:25:50;4.70;;;4.28;;
10605;SDS011;5350;42.698;23.148;2023-05-28T05:28:17;5.50;;;4.38;;
10605;SDS011;5350;42.698;23.148;2023-05-28T05:30:43;5.97;;;4.63;;
10605;SDS011;5350;42.698;23.148;2023-05-28T05:33:10;6.55;;;4.63;;
10605;SDS011;5350;42.698;23.148;2023-05-28T05:35:37;4.60;;;4.20;;
10605;SDS011;5350;42.698;23.148;2023-05-28T05:38:04;6.40;;;4.43;;
10605;SDS011;5350;42.698;23.148;2023-05-28T05:40:32;5.70;;;4.80;;
10605;SDS011;5350;42.698;23.148;2023-05-28T05:43:00;4.72;;;4.22;;
10605;SDS011;5350;42.698;23.148;2023-05-28T05:45:27;4.57;;;4.18;;
10605;SDS011;5350;42.698;23.148;2023-05-28T05:47:54;5.10;;;4.60;;
10605;SDS011;5350;42.698;23.148;2023-05-28T05:50:20;6.38;;;4.65;;
10605;SDS011;5350;42.698;23.148;2023-05-28T05:52:47;5.25;;;4.45;;
10605;SDS011;5350;42.698;23.148;2023-05-28T05:55:14;7.13;;;5.22;;
10605;SDS011;5350;42.698;23.148;2023-05-28T05:57:41;4.90;;;4.50;;
10605;SDS011;5350;42.698;23.148;2023-05-28T06:00:11;5.10;;;4.60;;
10605;SDS011;5350;42.698;23.148;2023-05-28T06:02:40;5.28;;;4.47;;
10605;SDS011;5350;42.698;23.148;2023-05-28T06:05:07;4.82;;;4.43;;
10605;SDS011;5350;42.698;23.148;2023-05-28T06:07:35;5.68;;;4.63;;
10605;SDS011;5350;42.698;23.148;2023-05-28T06:10:01;7.13;;;5.00;;
10605;SDS011;5350;42.698;23.148;2023-05-28T06:12:28;5.32;;;4.35;;
10605;SDS011;5350;42.698;23.148;2023-05-28T06:14:55;5.18;;;4.78;;
10605;SDS011;5350;42.698;23.148;2023-05-28T06:17:26;6.22;;;4.80;;
10605;SDS011;5350;42.698;23.148;2023-05-28T06:19:53;5.60;;;4.80;;
10605;SDS011;5350;42.698;23.148;2023-05-28T06:22:20;6.75;;;4.47;;
10605;SDS011;5350;42.698;23.148;2023-05-28T06:24:47;5.32;;;4.82;;
10605;SDS011;5350;42.698;23.148;2023-05-28T06:27:15;6.53;;;5.28;;
10605;SDS011;5350;42.698;23.148;2023-05-28T06:29:41;4.90;;;4.50;;
10605;SDS011;5350;42.698;23.148;2023-05-28T06:32:08;5.15;;;4.57;;
10605;SDS011;5350;42.698;23.148;2023-05-28T06:34:36;4.60;;;4.20;;
10605;SDS011;5350;42.698;23.148;2023-05-28T06:37:03;7.40;;;5.32;;
10605;SDS011;5350;42.698;23.148;2023-05-28T06:39:31;6.72;;;5.85;;
10605;SDS011;5350;42.698;23.148;2023-05-28T06:41:58;7.38;;;6.03;;
10605;SDS011;5350;42.698;23.148;2023-05-28T06:44:25;5.53;;;5.13;;
10605;SDS011;5350;42.698;23.148;2023-05-28T06:46:52;7.32;;;5.55;;
10605;SDS011;5350;42.698;23.148;2023-05-28T06:49:19;5.65;;;5.03;;
10605;SDS011;5350;42.698;23.148;2023-05-28T06:51:47;8.10;;;5.60;;
10605;SDS011;5350;42.698;23.148;2023-05-28T06:54:14;6.00;;;5.38;;
10605;SDS011;5350;42.698;23.148;2023-05-28T06:56:41;5.93;;;5.43;;
10605;SDS011;5350;42.698;23.148;2023-05-28T06:59:13;7.55;;;5.75;;
10605;SDS011;5350;42.698;23.148;2023-05-28T07:01:39;6.60;;;6.10;;
10605;SDS011;5350;42.698;23.148;2023-05-28T07:04:06;6.78;;;5.97;;
10605;SDS011;5350;42.698;23.148;2023-05-28T07:06:33;6.15;;;5.32;;
10605;SDS011;5350;42.698;23.148;2023-05-28T07:09:01;6.35;;;5.80;;
10605;SDS011;5350;42.698;23.148;2023-05-28T07:11:28;8.77;;;6.10;;
10605;SDS011;5350;42.698;23.148;2023-05-28T07:13:55;9.25;;;6.50;;
10605;SDS011;5350;42.698;23.148;2023-05-28T07:16:24;6.18;;;5.47;;
10605;SDS011;5350;42.698;23.148;2023-05-28T07:18:51;7.85;;;6.25;;
10605;SDS011;5350;42.698;23.148;2023-05-28T07:21:18;7.10;;;6.40;;
10605;SDS011;5350;42.698;23.148;2023-05-28T07:23:45;6.53;;;6.03;;
10605;SDS011;5350;42.698;23.148;2023-05-28T07:26:13;6.90;;;5.78;;
10605;SDS011;5350;42.698;23.148;2023-05-28T07:28:39;8.02;;;6.57;;
10605;SDS011;5350;42.698;23.148;2023-05-28T07:31:06;8.57;;;6.65;;
10605;SDS011;5350;42.698;23.148;2023-05-28T07:33:36;7.15;;;6.13;;
10605;SDS011;5350;42.698;23.148;2023-05-28T07:36:03;7.07;;;6.13;;
10605;SDS011;5350;42.698;23.148;2023-05-28T07:38:30;8.70;;;6.75;;
10605;SDS011;5350;42.698;23.148;2023-05-28T07:40:56;6.75;;;6.03;;
10605;SDS011;5350;42.698;23.148;2023-05-28T07:43:25;7.05;;;6.38;;
10605;SDS011;5350;42.698;23.148;2023-05-28T07:45:51;6.25;;;5.65;;
10605;SDS011;5350;42.698;23.148;2023-05-28T07:48:18;6.10;;;5.30;;
10605;SDS011;5350;42.698;23.148;2023-05-28T07:50:45;6.40;;;5.80;;
10605;SDS011;5350;42.698;23.148;2023-05-28T07:53:11;6.03;;;5.40;;
10605;SDS011;5350;42.698;23.148;2023-05-28T07:55:38;7.70;;;6.05;;
10605;SDS011;5350;42.698;23.148;2023-05-28T07:58:05;6.95;;;6.25;;
10605;SDS011;5350;42.698;23.148;2023-05-28T08:00:33;7.90;;;5.90;;
10605;SDS011;5350;42.698;23.148;2023-05-28T08:03:02;6.25;;;5.65;;
10605;SDS011;5350;42.698;23.148;2023-05-28T08:05:29;5.45;;;4.55;;
10605;SDS011;5350;42.698;23.148;2023-05-28T08:07:55;5.28;;;4.78;;
10605;SDS011;5350;42.698;23.148;2023-05-28T08:10:22;8.00;;;4.57;;
10605;SDS011;5350;42.698;23.148;2023-05-28T08:12:49;4.97;;;4.38;;
10605;SDS011;5350;42.698;23.148;2023-05-28T08:15:16;4.57;;;4.18;;
10605;SDS011;5350;42.698;23.148;2023-05-28T08:17:44;4.43;;;4.10;;
10605;SDS011;5350;42.698;23.148;2023-05-28T08:20:11;5.97;;;4.63;;
10605;SDS011;5350;42.698;23.148;2023-05-28T08:22:37;5.40;;;4.18;;
10605;SDS011;5350;42.698;23.148;2023-05-28T08:25:05;5.80;;;4.40;;
10605;SDS011;5350;42.698;23.148;2023-05-28T08:27:33;5.53;;;5.03;;
10605;SDS011;5350;42.698;23.148;2023-05-28T08:30:00;4.82;;;4.25;;
10605;SDS011;5350;42.698;23.148;2023-05-28T08:32:27;6.32;;;4.20;;
10605;SDS011;5350;42.698;23.148;2023-05-28T08:34:56;4.78;;;4.32;;
10605;SDS011;5350;42.698;23.148;2023-05-28T08:37:22;5.20;;;4.13;;
10605;SDS011;5350;42.698;23.148;2023-05-28T08:39:50;4.53;;;4.03;;
10605;SDS011;5350;42.698;23.148;2023-05-28T08:42:16;4.47;;;4.07;;
10605;SDS011;5350;42.698;23.148;2023-05-28T08:44:43;4.70;;;4.30;;
10605;SDS011;5350;42.698;23.148;2023-05-28T08:47:11;4.50;;;3.63;;
10605;SDS011;5350;42.698;23.148;2023-05-28T08:49:42;4.72;;;4.22;;
10605;SDS011;5350;42.698;23.148;2023-05-28T08:52:15;5.93;;;4.40;;
10605;SDS011;5350;42.698;23.148;2023-05-28T08:54:45;4.72;;;4.22;;
10605;SDS011;5350;42.698;23.148;2023-05-28T08:57:12;4.30;;;3.85;;
10605;SDS011;5350;42.698;23.148;2023-05-28T08:59:40;5.43;;;4.03;;
10605;SDS011;5350;42.698;23.148;2023-05-28T09:02:07;4.35;;;3.95;;
10605;SDS011;5350;42.698;23.148;2023-05-28T09:04:36;3.67;;;3.38;;
10605;SDS011;5350;42.698;23.148;2023-05-28T09:07:03;4.50;;;4.10;;
10605;SDS011;5350;42.698;23.148;2023-05-28T09:09:32;4.93;;;4.13;;
10605;SDS011;5350;42.698;23.148;2023-05-28T09:12:02;4.25;;;3.85;;
10605;SDS011;5350;42.698;23.148;2023-05-28T09:14:30;5.50;;;4.60;;
10605;SDS011;5350;42.698;23.148;2023-05-28T09:17:03;5.30;;;4.80;;
10605;SDS011;5350;42.698;23.148;2023-05-28T09:19:29;5.25;;;4.20;;
10605;SDS011;5350;42.698;23.148;2023-05-28T09:21:57;4.35;;;4.05;;
10605;SDS011;5350;42.698;23.148;2023-05-28T09:24:26;4.97;;;4.13;;
10605;SDS011;5350;42.698;23.148;2023-05-28T09:26:55;4.30;;;3.90;;
10605;SDS011;5350;42.698;23.148;2023-05-28T09:29:23;3.25;;;2.53;;
10605;SDS011;5350;42.698;23.148;2023-05-28T09:31:54;4.63;;;2.63;;
10605;SDS011;5350;42.698;23.148;2023-05-28T09:34:27;2.95;;;2.67;;
10605;SDS011;5350;42.698;23.148;2023-05-28T09:36:58;2.85;;;2.53;;
10605;SDS011;5350;42.698;23.148;2023-05-28T09:39:25;4.18;;;2.42;;
10605;SDS011;5350;42.698;23.148;2023-05-28T09:42:03;2.90;;;2.53;;
10605;SDS011;5350;42.698;23.148;2023-05-28T09:44:36;3.22;;;2.40;;
10605;SDS011;5350;42.698;23.148;2023-05-28T09:47:11;3.65;;;2.90;;
10605;SDS011;5350;42.698;23.148;2023-05-28T09:49:41;3.88;;;2.92;;
10605;SDS011;5350;42.698;23.148;2023-05-28T09:52:09;3.20;;;2.88;;
10605;SDS011;5350;42.698;23.148;2023-05-28T09:54:42;5.68;;;4.93;;
10605;SDS011;5350;42.698;23.148;2023-05-28T09:57:13;4.43;;;4.05;;
10605;SDS011;5350;42.698;23.148;2023-05-28T09:59:41;4.65;;;3.33;;
10605;SDS011;5350;42.698;23.148;2023-05-28T10:02:14;3.50;;;3.15;;
10605;SDS011;5350;42.698;23.148;2023-05-28T10:04:49;4.82;;;3.22;;
10605;SDS011;5350;42.698;23.148;2023-05-28T10:07:20;3.55;;;2.45;;
10605;SDS011;5350;42.698;23.148;2023-05-28T10:09:48;5.82;;;3.45;;
10605;SDS011;5350;42.698;23.148;2023-05-28T10:12:19;5.28;;;2.88;;
10605;SDS011;5350;42.698;23.148;2023-05-28T10:14:49;5.70;;;4.13;;
10605;SDS011;5350;42.698;23.148;2023-05-28T10:17:17;3.72;;;3.28;;
10605;SDS011;5350;42.698;23.148;2023-05-28T10:19:44;3.22;;;3.00;;
10605;SDS011;5350;42.698;23.148;2023-05-28T10:22:12;3.05;;;2.47;;
10605;SDS011;5350;42.698;23.148;2023-05-28T10:24:39;2.60;;;2.40;;
10605;SDS011;5350;42.698;23.148;2023-05-28T10:27:07;2.35;;;2.15;;
10605;SDS011;5350;42.698;23.148;2023-05-28T10:29:39;5.47;;;3.70;;
10605;SDS011;5350;42.698;23.148;2023-05-28T10:32:07;2.50;;;2.30;;
10605;SDS011;5350;42.698;23.148;2023-05-28T10:34:35;4.65;;;3.40;;
10605;SDS011;5350;42.698;23.148;2023-05-28T10:37:03;2.97;;;2.67;;
10605;SDS011;5350;42.698;23.148;2023-05-28T10:39:38;5.93;;;4.80;;
10605;SDS011;5350;42.698;23.148;2023-05-28T10:42:06;4.10;;;3.63;;
10605;SDS011;5350;42.698;23.148;2023-05-28T10:47:31;5.55;;;4.47;;
10605;SDS011;5350;42.698;23.148;2023-05-28T10:49:59;3.22;;;2.65;;
10605;SDS011;5350;42.698;23.148;2023-05-28T10:52:26;3.28;;;2.97;;
10605;SDS011;5350;42.698;23.148;2023-05-28T10:54:53;4.38;;;3.60;;
10605;SDS011;5350;42.698;23.148;2023-05-28T10:57:20;3.58;;;3.28;;
10605;SDS011;5350;42.698;23.148;2023-05-28T10:59:48;2.95;;;2.75;;
10605;SDS011;5350;42.698;23.148;2023-05-28T11:02:18;4.47;;;2.60;;
10605;SDS011;5350;42.698;23.148;2023-05-28T11:04:49;2.92;;;2.72;;
10605;SDS011;5350;42.698;23.148;2023-05-28T11:07:18;4.65;;;3.28;;
10605;SDS011;5350;42.698;23.148;2023-05-28T11:09:49;3.72;;;2.80;;
10605;SDS011;5350;42.698;23.148;2023-05-28T11:12:17;2.40;;;2.20;;
10605;SDS011;5350;42.698;23.148;2023-05-28T11:14:45;4.70;;;2.53;;
10605;SDS011;5350;42.698;23.148;2023-05-28T11:17:15;4.07;;;3.78;;
10605;SDS011;5350;42.698;23.148;2023-05-28T11:19:43;3.58;;;2.67;;
10605;SDS011;5350;42.698;23.148;2023-05-28T11:22:11;2.65;;;2.45;;
10605;SDS011;5350;42.698;23.148;2023-05-28T11:24:51;2.78;;;2.58;;
10605;SDS011;5350;42.698;23.148;2023-05-28T11:27:23;2.90;;;2.70;;
10605;SDS011;5350;42.698;23.148;2023-05-28T11:29:51;2.70;;;2.50;;
10605;SDS011;5350;42.698;23.148;2023-05-28T11:32:19;2.55;;;2.35;;
10605;SDS011;5350;42.698;23.148;2023-05-28T11:34:49;2.80;;;2.60;;
10605;SDS011;5350;42.698;23.148;2023-05-28T11:37:21;2.88;;;2.67;;
10605;SDS011;5350;42.698;23.148;2023-05-28T11:39:51;3.33;;;2.40;;
10605;SDS011;5350;42.698;23.148;2023-05-28T11:42:19;2.55;;;2.35;;
10605;SDS011;5350;42.698;23.148;2023-05-28T11:44:47;2.72;;;2.53;;
10605;SDS011;5350;42.698;23.148;2023-05-28T11:47:16;3.42;;;2.97;;
10605;SDS011;5350;42.698;23.148;2023-05-28T11:49:43;4.85;;;3.60;;
10605;SDS011;5350;42.698;23.148;2023-05-28T11:52:12;3.55;;;3.17;;
10605;SDS011;5350;42.698;23.148;2023-05-28T11:54:41;3.92;;;3.55;;
10605;SDS011;5350;42.698;23.148;2023-05-28T11:57:08;4.80;;;4.03;;
10605;SDS011;5350;42.698;23.148;2023-05-28T11:59:36;5.82;;;4.03;;
10605;SDS011;5350;42.698;23.148;2023-05-28T12:02:09;4.32;;;3.90;;
10605;SDS011;5350;42.698;23.148;2023-05-28T12:04:37;4.38;;;4.03;;
10605;SDS011;5350;42.698;23.148;2023-05-28T12:07:04;4.85;;;4.30;;
10605;SDS011;5350;42.698;23.148;2023-05-28T12:09:32;4.90;;;4.13;;
10605;SDS011;5350;42.698;23.148;2023-05-28T12:12:09;4.70;;;4.30;;
10605;SDS011;5350;42.698;23.148;2023-05-28T12:14:37;4.78;;;4.38;;
10605;SDS011;5350;42.698;23.148;2023-05-28T12:17:04;5.80;;;4.80;;
10605;SDS011;5350;42.698;23.148;2023-05-28T12:19:32;7.82;;;6.88;;
10605;SDS011;5350;42.698;23.148;2023-05-28T12:21:59;5.55;;;5.15;;
10605;SDS011;5350;42.698;23.148;2023-05-28T12:24:27;6.60;;;4.72;;
10605;SDS011;5350;42.698;23.148;2023-05-28T12:26:55;4.20;;;3.90;;
10605;SDS011;5350;42.698;23.148;2023-05-28T12:29:22;3.97;;;3.67;;
10605;SDS011;5350;42.698;23.148;2023-05-28T12:31:56;4.32;;;3.92;;
10605;SDS011;5350;42.698;23.148;2023-05-28T12:34:24;4.25;;;3.85;;
10605;SDS011;5350;42.698;23.148;2023-05-28T12:36:51;3.78;;;3.35;;
10605;SDS011;5350;42.698;23.148;2023-05-28T12:39:17;3.50;;;3.25;;
10605;SDS011;5350;42.698;23.148;2023-05-28T12:41:44;5.65;;;3.63;;
10605;SDS011;5350;42.698;23.148;2023-05-28T12:44:12;3.85;;;3.47;;
10605;SDS011;5350;42.698;23.148;2023-05-28T12:46:40;4.78;;;4.35;;
10605;SDS011;5350;42.698;23.148;2023-05-28T12:49:07;4.57;;;4.20;;
10605;SDS011;5350;42.698;23.148;2023-05-28T12:51:34;4.38;;;4.07;;
10605;SDS011;5350;42.698;23.148;2023-05-28T12:54:02;4.43;;;4.10;;
10605;SDS011;5350;42.698;23.148;2023-05-28T12:56:28;4.57;;;3.72;;
10605;SDS011;5350;42.698;23.148;2023-05-28T12:58:55;3.92;;;3.60;;
10605;SDS011;5350;42.698;23.148;2023-05-28T13:01:24;8.68;;;6.40;;
10605;SDS011;5350;42.698;23.148;2023-05-28T13:03:51;7.20;;;5.53;;
10605;SDS011;5350;42.698;23.148;2023-05-28T13:06:18;6.13;;;5.53;;
10605;SDS011;5350;42.698;23.148;2023-05-28T13:08:45;4.45;;;3.90;;
10605;SDS011;5350;42.698;23.148;2023-05-28T13:11:11;3.92;;;3.60;;
10605;SDS011;5350;42.698;23.148;2023-05-28T13:13:38;5.00;;;4.20;;
10605;SDS011;5350;42.698;23.148;2023-05-28T13:16:05;6.00;;;4.00;;
10605;SDS011;5350;42.698;23.148;2023-05-28T13:18:33;5.55;;;4.80;;
10605;SDS011;5350;42.698;23.148;2023-05-28T13:21:00;5.82;;;5.32;;
10605;SDS011;5350;42.698;23.148;2023-05-28T13:23:27;5.82;;;5.30;;
10605;SDS011;5350;42.698;23.148;2023-05-28T13:25:54;4.05;;;3.80;;
10605;SDS011;5350;42.698;23.148;2023-05-28T13:28:21;5.18;;;4.78;;
10605;SDS011;5350;42.698;23.148;2023-05-28T13:30:47;5.30;;;4.47;;
10605;SDS011;5350;42.698;23.148;2023-05-28T13:33:15;7.88;;;4.78;;
10605;SDS011;5350;42.698;23.148;2023-05-28T13:35:43;4.72;;;4.30;;
10605;SDS011;5350;42.698;23.148;2023-05-28T13:38:10;5.15;;;4.70;;
10605;SDS011;5350;42.698;23.148;2023-05-28T13:40:37;4.95;;;4.53;;
10605;SDS011;5350;42.698;23.148;2023-05-28T13:43:04;6.78;;;6.07;;
10605;SDS011;5350;42.698;23.148;2023-05-28T13:45:32;6.88;;;6.28;;
10605;SDS011;5350;42.698;23.148;2023-05-28T13:47:59;8.25;;;5.90;;
10605;SDS011;5350;42.698;23.148;2023-05-28T13:50:27;5.85;;;5.45;;
10605;SDS011;5350;42.698;23.148;2023-05-28T13:52:55;4.88;;;3.95;;
10605;SDS011;5350;42.698;23.148;2023-05-28T13:55:22;5.20;;;4.70;;
10605;SDS011;5350;42.698;23.148;2023-05-28T13:57:49;5.35;;;4.95;;
10605;SDS011;5350;42.698;23.148;2023-05-28T14:00:16;4.22;;;3.78;;
10605;SDS011;5350;42.698;23.148;2023-05-28T14:02:45;5.80;;;5.30;;
10605;SDS011;5350;42.698;23.148;2023-05-28T14:05:13;4.93;;;4.53;;
10605;SDS011;5350;42.698;23.148;2023-05-28T14:07:40;3.80;;;3.50;;
10605;SDS011;5350;42.698;23.148;2023-05-28T14:10:08;4.13;;;3.83;;
10605;SDS011;5350;42.698;23.148;2023-05-28T14:12:36;4.03;;;3.72;;
10605;SDS011;5350;42.698;23.148;2023-05-28T14:15:03;4.30;;;3.80;;
10605;SDS011;5350;42.698;23.148;2023-05-28T14:17:30;4.30;;;3.90;;
10605;SDS011;5350;42.698;23.148;2023-05-28T14:19:57;3.67;;;3.33;;
10605;SDS011;5350;42.698;23.148;2023-05-28T14:22:24;3.95;;;3.67;;
10605;SDS011;5350;42.698;23.148;2023-05-28T14:24:51;5.18;;;3.97;;
10605;SDS011;5350;42.698;23.148;2023-05-28T14:27:19;4.53;;;4.22;;
10605;SDS011;5350;42.698;23.148;2023-05-28T14:29:46;4.75;;;3.20;;
10605;SDS011;5350;42.698;23.148;2023-05-28T14:32:13;3.92;;;3.35;;
10605;SDS011;5350;42.698;23.148;2023-05-28T14:34:40;4.10;;;3.70;;
10605;SDS011;5350;42.698;23.148;2023-05-28T14:37:06;4.03;;;3.28;;
10605;SDS011;5350;42.698;23.148;2023-05-28T14:39:33;3.70;;;3.40;;
10605;SDS011;5350;42.698;23.148;2023-05-28T14:42:00;4.30;;;3.40;;
10605;SDS011;5350;42.698;23.148;2023-05-28T14:44:29;3.58;;;3.30;;
10605;SDS011;5350;42.698;23.148;2023-05-28T14:46:57;6.82;;;3.65;;
10605;SDS011;5350;42.698;23.148;2023-05-28T14:49:24;5.03;;;3.72;;
10605;SDS011;5350;42.698;23.148;2023-05-28T14:51:53;4.55;;;3.50;;
10605;SDS011;5350;42.698;23.148;2023-05-28T14:54:20;3.78;;;3.17;;